createdAt,value
2023-03-13T00:03:22.291Z,99839.25
2023-03-13T00:06:49.589Z,99841.36
2023-03-13T00:10:17.245Z,99831.81
2023-03-13T00:13:45.044Z,99830.04
2023-03-13T00:17:12.022Z,99836.70
2023-03-13T00:20:39.037Z,99837.11
2023-03-13T00:24:06.707Z,99844.14
2023-03-13T00:27:36.490Z,99841.84
2023-03-13T00:31:08.947Z,99840.02
2023-03-13T00:34:36.404Z,99838.52
2023-03-13T00:38:03.436Z,99835.17
2023-03-13T00:41:32.246Z,99824.59
2023-03-13T00:44:59.301Z,99811.05
2023-03-13T00:48:26.992Z,99801.73
2023-03-13T00:51:54.210Z,99810.51
2023-03-13T00:55:21.245Z,99811.21
2023-03-13T00:58:49.983Z,99810.33
2023-03-13T01:02:17.255Z,99805.44
2023-03-13T01:05:44.610Z,99798.12
2023-03-13T01:09:13.806Z,99791.52
2023-03-13T01:12:42.290Z,99797.64
2023-03-13T01:16:11.835Z,99799.84
2023-03-13T01:19:37.331Z,99800.05
2023-03-13T01:23:04.639Z,99797.45
2023-03-13T01:26:32.154Z,99796.91
2023-03-13T01:29:59.797Z,99800.66
2023-03-13T01:33:27.257Z,99799.08
2023-03-13T01:36:54.566Z,99790.11
2023-03-13T01:40:22.325Z,99778.73
2023-03-13T01:43:49.812Z,99782.48
2023-03-13T01:47:17.701Z,99774.86
2023-03-13T01:51:12.805Z,99769.34
2023-03-13T01:54:43.777Z,99771.88
2023-03-13T01:58:13.361Z,99773.22
2023-03-13T02:01:42.547Z,99768.54
2023-03-13T02:05:10.849Z,99764.86
2023-03-13T02:08:44.035Z,99762.39
2023-03-13T02:12:14.502Z,99780.97
2023-03-13T02:15:43.541Z,99776.46
2023-03-13T02:19:21.388Z,99775.92
2023-03-13T02:22:54.416Z,99772.84
2023-03-13T02:26:21.720Z,99765.10
2023-03-13T02:29:48.950Z,99758.02
2023-03-13T02:33:18.065Z,99758.22
2023-03-13T02:36:47.451Z,99753.58
2023-03-13T02:40:22.298Z,99756.46
2023-03-13T02:43:50.064Z,99763.30
2023-03-13T02:47:20.827Z,99762.70
2023-03-13T02:50:48.081Z,99767.59
2023-03-13T02:54:20.769Z,99769.39
2023-03-13T02:57:48.550Z,99775.79
2023-03-13T03:01:15.618Z,99776.69
2023-03-13T03:04:43.264Z,99771.85
2023-03-13T03:08:11.361Z,99768.63
2023-03-13T03:11:39.299Z,99775.55
2023-03-13T03:15:11.632Z,99771.80
2023-03-13T03:18:42.669Z,99763.27
2023-03-13T03:22:09.826Z,99764.27
2023-03-13T03:25:36.983Z,99758.70
2023-03-13T03:29:05.636Z,99759.54
2023-03-13T03:32:33.018Z,99750.35
2023-03-13T03:36:05.191Z,99745.66
2023-03-13T03:39:32.685Z,99750.13
2023-03-13T03:43:00.664Z,99749.28
2023-03-13T03:46:29.000Z,99743.41
2023-03-13T03:49:56.418Z,99735.62
2023-03-13T03:53:23.993Z,99735.14
2023-03-13T03:56:51.271Z,99732.90
2023-03-13T04:00:20.904Z,99729.30
2023-03-13T04:03:50.115Z,99723.77
2023-03-13T04:07:19.089Z,99718.14
2023-03-13T04:10:46.370Z,99714.89
2023-03-13T04:14:13.930Z,99707.59
2023-03-13T04:17:41.192Z,99705.56
2023-03-13T04:21:10.304Z,99701.95
2023-03-13T04:24:42.784Z,99694.88
2023-03-13T04:28:10.349Z,99684.55
2023-03-13T04:31:42.732Z,99679.45
2023-03-13T04:35:30.361Z,99685.25
2023-03-13T04:39:15.636Z,99687.44
2023-03-13T04:43:10.392Z,99685.69
2023-03-13T04:47:00.734Z,99678.95
2023-03-13T04:50:45.944Z,99672.66
2023-03-13T04:54:44.228Z,99670.45
2023-03-13T04:58:22.263Z,99670.11
2023-03-13T05:02:22.214Z,99673.50
2023-03-13T05:05:49.453Z,99674.33
2023-03-13T05:09:39.403Z,99669.48
2023-03-13T05:13:30.158Z,99669.88
2023-03-13T05:17:14.282Z,99663.94
2023-03-13T05:21:12.611Z,99662.21
2023-03-13T05:24:56.361Z,99653.05
2023-03-13T05:28:29.593Z,99643.70
2023-03-13T05:32:15.359Z,99641.77
2023-03-13T05:35:56.396Z,99643.48
2023-03-13T05:39:24.115Z,99642.93
2023-03-13T05:43:13.708Z,99636.35
2023-03-13T05:46:47.919Z,99632.20
2023-03-13T05:50:30.328Z,99627.04
2023-03-13T05:54:19.427Z,99620.54
2023-03-13T05:58:02.670Z,99612.85
2023-03-13T06:01:56.066Z,99607.77
2023-03-13T06:05:30.886Z,99603.52
2023-03-13T06:08:59.668Z,99599.79
2023-03-13T06:12:29.968Z,99596.42
2023-03-13T06:15:58.799Z,99590.98
2023-03-13T06:19:42.243Z,99584.83
2023-03-13T06:23:09.245Z,99580.67
2023-03-13T06:26:36.508Z,99579.08
2023-03-13T06:30:04.033Z,99580.58
2023-03-13T06:33:31.225Z,99576.18
2023-03-13T06:36:58.963Z,99572.25
2023-03-13T06:40:26.629Z,99565.92
2023-03-13T06:43:53.615Z,99557.66
2023-03-13T06:47:20.936Z,99553.94
2023-03-13T06:50:48.103Z,99553.89
2023-03-13T06:54:15.147Z,99549.00
2023-03-13T06:57:42.331Z,99542.02
2023-03-13T07:01:11.696Z,99542.36
2023-03-13T07:04:38.828Z,99536.85
2023-03-13T07:08:06.705Z,99532.58
2023-03-13T07:11:34.070Z,99525.19
2023-03-13T07:15:01.068Z,99524.75
2023-03-13T07:18:28.572Z,99518.70
2023-03-13T07:21:57.079Z,99508.39
2023-03-13T07:25:24.293Z,99509.30
2023-03-13T07:28:51.592Z,99509.88
2023-03-13T07:32:19.059Z,99507.55
2023-03-13T07:35:51.147Z,99507.25
2023-03-13T07:39:18.347Z,99496.83
2023-03-13T07:42:45.555Z,99490.98
2023-03-13T07:46:16.012Z,99483.44
2023-03-13T07:49:44.275Z,99475.70
2023-03-13T07:53:14.166Z,99468.17
2023-03-13T07:56:42.182Z,99465.14
2023-03-13T08:00:16.746Z,99458.29
2023-03-13T08:03:45.326Z,99452.83
2023-03-13T08:07:13.540Z,99445.22
2023-03-13T08:10:40.723Z,99447.02
2023-03-13T08:14:08.028Z,99437.32
2023-03-13T08:17:35.431Z,99421.89
2023-03-13T08:21:06.398Z,99410.66
2023-03-13T08:24:33.473Z,99406.89
2023-03-13T08:28:02.479Z,99403.84
2023-03-13T08:31:32.731Z,99414.68
2023-03-13T08:34:59.733Z,99410.19
2023-03-13T08:38:27.062Z,99399.96
2023-03-13T08:41:54.108Z,99394.61
2023-03-13T08:45:21.281Z,99382.11
2023-03-13T08:48:52.435Z,99371.50
2023-03-13T08:52:19.413Z,99377.44
2023-03-13T08:55:53.322Z,99372.23
2023-03-13T08:59:20.555Z,99367.73
2023-03-13T09:02:47.576Z,99363.91
2023-03-13T09:06:15.324Z,99356.45
2023-03-13T09:09:42.439Z,99349.16
2023-03-13T09:13:10.002Z,99334.91
2023-03-13T09:16:37.376Z,99327.09
2023-03-13T09:20:05.879Z,99314.02
2023-03-13T09:23:33.006Z,99310.03
2023-03-13T09:27:01.636Z,99307.79
2023-03-13T09:30:29.131Z,99299.06
2023-03-13T09:33:58.417Z,99298.19
2023-03-13T09:37:26.036Z,99292.09
2023-03-13T09:41:05.789Z,99281.10
2023-03-13T09:44:40.209Z,99272.05
2023-03-13T09:48:13.202Z,99261.41
2023-03-13T09:51:44.821Z,99262.45
2023-03-13T09:55:21.593Z,99266.64
2023-03-13T09:58:55.065Z,99263.33
2023-03-13T10:02:29.651Z,99263.52
2023-03-13T10:05:59.690Z,99256.36
2023-03-13T10:09:32.409Z,99254.09
2023-03-13T10:13:11.530Z,99242.07
2023-03-13T10:16:45.832Z,99238.23
2023-03-13T10:20:22.381Z,99235.80
2023-03-13T10:23:54.910Z,99233.00
2023-03-13T10:27:21.967Z,99231.96
2023-03-13T10:30:54.551Z,99232.13
2023-03-13T10:34:21.896Z,99226.38
2023-03-13T10:37:48.955Z,99222.37
2023-03-13T10:41:27.866Z,99214.70
2023-03-13T10:44:59.669Z,99218.71
2023-03-13T10:48:31.379Z,99215.92
2023-03-13T10:52:00.356Z,99213.84
2023-03-13T10:55:28.598Z,99204.95
2023-03-13T10:58:56.282Z,99199.90
2023-03-13T11:02:34.076Z,99197.64
2023-03-13T11:06:04.782Z,99193.80
2023-03-13T11:09:32.394Z,99191.02
2023-03-13T11:13:01.189Z,99184.23
2023-03-13T11:16:30.692Z,99176.73
2023-03-13T11:20:06.340Z,99164.70
2023-03-13T11:23:40.801Z,99168.70
2023-03-13T11:27:16.862Z,99165.58
2023-03-13T11:31:02.769Z,99165.92
2023-03-13T11:34:38.895Z,99159.67
2023-03-13T11:38:14.553Z,99151.48
2023-03-13T11:41:54.080Z,99154.96
2023-03-13T11:45:33.297Z,99155.31
2023-03-13T11:49:24.453Z,99155.65
2023-03-13T11:53:30.826Z,99150.79
2023-03-13T11:57:14.699Z,99146.94
2023-03-13T12:00:49.049Z,99151.12
2023-03-13T12:04:23.847Z,99143.48
2023-03-13T12:07:56.253Z,99136.69
2023-03-13T12:11:28.897Z,99132.16
2023-03-13T12:15:00.954Z,99125.20
2023-03-13T12:18:34.430Z,99120.31
2023-03-13T12:22:08.381Z,99118.58
2023-03-13T12:25:41.116Z,99115.08
2023-03-13T12:29:18.914Z,99103.06
2023-03-13T12:32:54.001Z,99102.71
2023-03-13T12:36:29.332Z,99094.34
2023-03-13T12:40:00.492Z,99097.83
2023-03-13T12:43:32.821Z,99089.83
2023-03-13T12:47:09.471Z,99082.85
2023-03-13T12:50:45.468Z,99079.00
2023-03-13T12:54:46.419Z,99072.02
2023-03-13T12:58:40.711Z,99065.39
2023-03-13T13:02:20.836Z,99043.23
2023-03-13T13:06:07.243Z,99039.39
2023-03-13T13:09:37.242Z,99032.73
2023-03-13T13:13:32.343Z,99029.94
2023-03-13T13:17:16.468Z,99021.02
2023-03-13T13:20:58.868Z,99008.79
2023-03-13T13:24:52.928Z,99004.73
2023-03-13T13:28:40.117Z,99005.72
2023-03-13T13:32:15.337Z,99002.99
2023-03-13T13:35:42.874Z,99004.29
2023-03-13T13:39:34.009Z,99000.20
2023-03-13T13:43:02.936Z,99003.11
2023-03-13T13:46:33.460Z,98998.86
2023-03-13T13:50:01.516Z,98999.46
2023-03-13T13:53:34.812Z,98996.40
2023-03-13T13:57:04.038Z,98993.18
2023-03-13T14:00:35.970Z,98994.84
2023-03-13T14:04:13.962Z,98996.73
2023-03-13T14:08:01.372Z,99002.24
2023-03-13T14:11:34.572Z,98999.58
2023-03-13T14:15:15.868Z,98992.72
2023-03-13T14:18:44.869Z,98994.90
2023-03-13T14:22:14.416Z,98984.73
2023-03-13T14:25:45.248Z,98980.14
2023-03-13T14:29:20.614Z,98976.09
2023-03-13T14:32:48.088Z,98976.82
2023-03-13T14:36:15.099Z,98977.77
2023-03-13T14:39:48.763Z,98976.11
2023-03-13T14:43:33.384Z,98966.08
2023-03-13T14:47:05.505Z,98958.52
2023-03-13T14:50:33.181Z,98954.11
2023-03-13T14:54:01.918Z,98950.27
2023-03-13T14:57:29.804Z,98958.89
2023-03-13T15:00:58.926Z,98953.91
2023-03-13T15:04:54.673Z,98957.56
2023-03-13T15:08:24.071Z,98957.00
2023-03-13T15:12:02.577Z,98963.23
2023-03-13T15:15:29.766Z,98949.45
2023-03-13T15:18:57.700Z,98947.95
2023-03-13T15:22:30.145Z,98939.54
2023-03-13T15:25:57.238Z,98943.51
2023-03-13T15:29:24.362Z,98936.01
2023-03-13T15:32:52.141Z,98937.29
2023-03-13T15:36:19.424Z,98931.35
2023-03-13T15:39:46.869Z,98925.35
2023-03-13T15:43:14.715Z,98922.32
2023-03-13T15:46:41.805Z,98921.42
2023-03-13T15:50:12.339Z,98914.92
2023-03-13T15:53:39.542Z,98919.29
2023-03-13T15:57:06.668Z,98919.41
2023-03-13T16:00:33.665Z,98918.98
2023-03-13T16:04:00.791Z,98908.55
2023-03-13T16:07:28.166Z,98907.71
2023-03-13T16:10:55.960Z,98905.05
2023-03-13T16:14:23.155Z,98904.52
2023-03-13T16:17:50.665Z,98894.20
2023-03-13T16:21:23.083Z,98898.95
2023-03-13T16:24:50.132Z,98899.61
2023-03-13T16:28:17.787Z,98897.98
2023-03-13T16:31:45.110Z,98904.83
2023-03-13T16:35:12.610Z,98907.36
2023-03-13T16:38:39.600Z,98905.73
2023-03-13T16:42:07.343Z,98902.70
2023-03-13T16:45:34.378Z,98912.64
2023-03-13T16:49:01.471Z,98911.73
2023-03-13T16:52:28.717Z,98915.83
2023-03-13T16:55:56.443Z,98912.71
2023-03-13T16:59:26.967Z,98910.81
2023-03-13T17:03:01.729Z,98906.11
2023-03-13T17:06:33.296Z,98914.34
2023-03-13T17:10:06.179Z,98914.73
2023-03-13T17:13:33.631Z,98911.12
2023-03-13T17:17:01.277Z,98907.30
2023-03-13T17:20:32.390Z,98907.17
2023-03-13T17:24:03.600Z,98902.14
2023-03-13T17:27:46.480Z,98900.27
2023-03-13T17:31:20.235Z,98899.97
2023-03-13T17:34:48.345Z,98898.08
2023-03-13T17:38:21.171Z,98900.19
2023-03-13T17:41:48.695Z,98900.94
2023-03-13T17:45:18.619Z,98900.81
2023-03-13T17:48:47.565Z,98897.18
2023-03-13T17:52:21.315Z,98891.30
2023-03-13T17:55:51.672Z,98884.66
2023-03-13T17:59:22.723Z,98877.18
2023-03-13T18:02:50.509Z,98873.91
2023-03-13T18:06:24.390Z,98878.16
2023-03-13T18:09:57.590Z,98874.71
2023-03-13T18:13:25.252Z,98870.05
2023-03-13T18:16:57.315Z,98869.56
2023-03-13T18:20:28.063Z,98865.23
2023-03-13T18:24:00.403Z,98859.64
2023-03-13T18:27:32.747Z,98859.63
2023-03-13T18:31:01.405Z,98849.17
2023-03-13T18:34:30.256Z,98847.25
2023-03-13T18:38:00.121Z,98841.52
2023-03-13T18:41:27.436Z,98854.82
2023-03-13T18:44:54.725Z,98862.69
2023-03-13T18:48:39.778Z,98861.14
2023-03-13T18:52:11.703Z,98843.90
2023-03-13T18:55:38.833Z,98829.27
2023-03-13T18:59:06.352Z,98834.73
2023-03-13T19:02:33.451Z,98838.42
2023-03-13T19:06:01.384Z,98844.21
2023-03-13T19:09:46.464Z,98839.52
2023-03-13T19:13:16.412Z,98839.90
2023-03-13T19:16:50.160Z,98837.30
2023-03-13T19:20:21.058Z,98832.79
2023-03-13T19:23:48.616Z,98837.35
2023-03-13T19:27:18.270Z,98840.34
2023-03-13T19:30:44.638Z,98828.66
2023-03-13T19:34:12.716Z,98823.61
2023-03-13T19:37:40.406Z,98818.55
2023-03-13T19:41:08.357Z,98818.56
2023-03-13T19:44:36.033Z,98817.66
2023-03-13T19:48:03.895Z,98811.02
2023-03-13T19:51:32.805Z,98798.43
2023-03-13T19:55:05.187Z,98790.73
2023-03-13T19:58:32.648Z,98783.05
2023-03-13T20:02:03.298Z,98777.64
2023-03-13T20:05:30.932Z,98767.34
2023-03-13T20:09:03.740Z,98765.93
2023-03-13T20:12:31.262Z,98760.19
2023-03-13T20:15:59.725Z,98756.00
2023-03-13T20:19:56.016Z,98749.19
2023-03-13T20:23:23.088Z,98756.88
2023-03-13T20:26:50.432Z,98766.77
2023-03-13T20:30:18.409Z,98766.19
2023-03-13T20:33:45.743Z,98757.78
2023-03-13T20:37:12.843Z,98762.08
2023-03-13T20:40:39.973Z,98760.27
2023-03-13T20:44:07.241Z,98754.61
2023-03-13T20:47:34.531Z,98753.30
2023-03-13T20:51:02.198Z,98748.16
2023-03-13T20:54:29.495Z,98737.80
2023-03-13T20:57:56.731Z,98737.04
2023-03-13T21:01:26.055Z,98733.51
2023-03-13T21:04:55.005Z,98727.70
2023-03-13T21:08:22.467Z,98727.30
2023-03-13T21:11:49.705Z,98735.46
2023-03-13T21:15:17.512Z,98736.79
2023-03-13T21:18:45.126Z,98727.11
2023-03-13T21:22:12.949Z,98716.36
2023-03-13T21:25:40.075Z,98713.34
2023-03-13T21:29:09.308Z,98704.87
2023-03-13T21:32:39.742Z,98691.38
2023-03-13T21:36:07.867Z,98686.63
2023-03-13T21:39:34.894Z,98686.23
2023-03-13T21:43:04.288Z,98669.39
2023-03-13T21:46:33.728Z,98655.69
2023-03-13T21:50:01.432Z,98655.13
2023-03-13T21:53:28.785Z,98652.08
2023-03-13T21:56:57.295Z,98640.00
2023-03-13T22:00:25.259Z,98633.56
2023-03-13T22:03:52.881Z,98634.28
2023-03-13T22:07:20.090Z,98621.19
2023-03-13T22:10:52.351Z,98616.46
2023-03-13T22:14:21.548Z,98608.07
2023-03-13T22:17:48.607Z,98603.30
2023-03-13T22:21:17.535Z,98605.97
2023-03-13T22:24:44.790Z,98604.10
2023-03-13T22:28:12.544Z,98609.20
2023-03-13T22:31:39.770Z,98602.09
2023-03-13T22:35:08.758Z,98605.11
2023-03-13T22:38:39.037Z,98610.33
2023-03-13T22:42:06.724Z,98605.61
2023-03-13T22:45:34.123Z,98612.06
2023-03-13T22:49:01.212Z,98615.06
2023-03-13T22:52:31.093Z,98622.10
2023-03-13T22:55:58.231Z,98611.48
2023-03-13T22:59:25.449Z,98619.91
2023-03-13T23:02:54.728Z,98613.11
2023-03-13T23:06:24.151Z,98619.63
2023-03-13T23:09:51.282Z,98623.73
2023-03-13T23:13:18.457Z,98628.17
2023-03-13T23:16:45.467Z,98624.10
2023-03-13T23:20:14.630Z,98624.38
2023-03-13T23:23:43.040Z,98618.56
2023-03-13T23:27:10.051Z,98611.48
2023-03-13T23:30:37.827Z,98610.88
2023-03-13T23:34:05.003Z,98611.48
2023-03-13T23:37:33.289Z,98615.42
2023-03-13T23:41:00.363Z,98618.66
2023-03-13T23:44:27.541Z,98616.11
2023-03-13T23:47:57.046Z,98610.93
2023-03-13T23:51:24.300Z,98616.35
2023-03-13T23:54:53.256Z,98618.81
2023-03-13T23:58:20.357Z,98621.40
